Time;durP1;ratioP1;P1;durP2;ratioP2;P2;SDS_P1;SDS_P2;PMS_P1;PMS_P2;Temp;Humidity;BMP_temperature;BMP_pressure;BME280_temperature;BME280_humidity;BME280_pressure;Samples;Min_cycle;Max_cycle;Signal;HPM_P1;HPM_P2
2022/04/14 00:01:53;;;;;;;2.20;1.90;;;;;;;;;;5043320;28;20442;-73
2022/04/14 00:04:19;;;;;;;8.67;2.37;;;;;;;;;;5040709;28;20446;-73
2022/04/14 00:06:45;;;;;;;3.87;2.23;;;;;;;;;;5039431;28;20996;-73
2022/04/14 00:09:11;;;;;;;3.70;2.57;;;;;;;;;;5044201;28;20497;-73
2022/04/14 00:11:38;;;;;;;8.60;2.53;;;;;;;;;;5043407;28;20526;-74
2022/04/14 00:14:04;;;;;;;5.50;2.87;;;;;;;;;;5042589;28;20442;-74
2022/04/14 00:16:30;;;;;;;6.03;2.20;;;;;;;;;;5043893;28;20466;-73
2022/04/14 00:18:56;;;;;;;11.60;2.53;;;;;;;;;;5034541;28;20968;-73
2022/04/14 00:21:22;;;;;;;1.60;1.60;;;;;;;;;;5024673;28;20438;-73
2022/04/14 00:23:48;;;;;;;1.97;1.83;;;;;;;;;;5025972;28;20443;-73
2022/04/14 00:26:14;;;;;;;2.33;2.10;;;;;;;;;;5030342;28;20443;-73
2022/04/14 00:28:40;;;;;;;2.20;2.10;;;;;;;;;;5030105;28;20908;-73
2022/04/14 00:31:06;;;;;;;6.60;2.00;;;;;;;;;;5031601;28;20427;-73
2022/04/14 00:33:33;;;;;;;8.73;2.17;;;;;;;;;;5026489;28;20927;-73
2022/04/14 00:35:59;;;;;;;2.30;2.20;;;;;;;;;;5030355;28;20481;-73
2022/04/14 00:38:25;;;;;;;2.57;2.10;;;;;;;;;;5031293;28;20493;-73
2022/04/14 00:40:52;;;;;;;7.80;2.47;;;;;;;;;;5031499;28;20426;-73
2022/04/14 00:43:20;;;;;;;2.50;2.00;;;;;;;;;;5028329;28;20518;-73
2022/04/14 00:45:49;;;;;;;2.07;2.07;;;;;;;;;;5025505;28;20540;-73
2022/04/14 00:48:15;;;;;;;4.07;2.17;;;;;;;;;;5025862;28;20836;-73
2022/04/14 00:50:41;;;;;;;4.53;2.37;;;;;;;;;;5031524;28;20435;-73
2022/04/14 00:53:07;;;;;;;3.20;2.20;;;;;;;;;;5030075;28;21073;-73
2022/04/14 00:55:33;;;;;;;4.10;2.37;;;;;;;;;;5029428;28;20451;-73
2022/04/14 00:57:59;;;;;;;2.57;2.37;;;;;;;;;;5032485;28;20946;-73
2022/04/14 01:00:25;;;;;;;7.80;2.20;;;;;;;;;;5034837;28;20419;-73
2022/04/14 01:02:52;;;;;;;2.90;2.53;;;;;;;;;;5032661;28;20435;-73
2022/04/14 01:05:20;;;;;;;3.43;2.20;;;;;;;;;;5033524;28;20431;-73
2022/04/14 01:07:46;;;;;;;1.83;1.73;;;;;;;;;;5032427;28;20487;-73
2022/04/14 01:10:12;;;;;;;8.30;2.20;;;;;;;;;;5032278;28;20439;-73
2022/04/14 01:12:38;;;;;;;5.43;2.23;;;;;;;;;;5034788;28;20569;-73
2022/04/14 01:15:05;;;;;;;3.00;2.10;;;;;;;;;;5033707;28;20423;-73
2022/04/14 01:17:31;;;;;;;19.13;2.50;;;;;;;;;;5034297;28;20521;-73
2022/04/14 01:19:56;;;;;;;23.40;2.83;;;;;;;;;;5031158;28;20651;-73
2022/04/14 01:22:31;;;;;;;3.27;1.97;;;;;;;;;;5045349;28;20435;-73
2022/04/14 01:24:58;;;;;;;4.50;2.67;;;;;;;;;;5026858;28;20435;-73
2022/04/14 01:27:25;;;;;;;5.60;1.80;;;;;;;;;;5034240;28;20993;-73
2022/04/14 01:29:52;;;;;;;3.93;2.87;;;;;;;;;;5033525;28;20584;-73
2022/04/14 01:32:19;;;;;;;2.60;2.20;;;;;;;;;;5031545;28;20431;-74
2022/04/14 01:34:45;;;;;;;3.73;2.50;;;;;;;;;;5048410;28;20821;-73
2022/04/14 01:37:11;;;;;;;2.30;2.20;;;;;;;;;;5034372;28;20435;-73
2022/04/14 01:39:37;;;;;;;4.07;2.33;;;;;;;;;;5032050;28;20458;-73
2022/04/14 01:42:04;;;;;;;12.63;2.33;;;;;;;;;;5033150;28;20439;-73
2022/04/14 01:44:30;;;;;;;7.93;2.23;;;;;;;;;;5032579;28;20893;-73
2022/04/14 01:46:56;;;;;;;6.17;2.30;;;;;;;;;;5032495;28;20514;-73
2022/04/14 01:49:22;;;;;;;3.57;2.23;;;;;;;;;;5033739;28;20479;-73
2022/04/14 01:51:48;;;;;;;4.20;2.50;;;;;;;;;;5033317;28;20445;-73
2022/04/14 01:54:15;;;;;;;2.77;2.03;;;;;;;;;;5026063;28;20478;-73
2022/04/14 01:56:41;;;;;;;3.17;2.17;;;;;;;;;;5033832;28;20434;-73
2022/04/14 01:59:07;;;;;;;1.90;1.80;;;;;;;;;;5033351;28;20485;-73
2022/04/14 02:01:33;;;;;;;5.73;1.93;;;;;;;;;;5033712;28;20422;-73
2022/04/14 02:04:02;;;;;;;5.63;2.03;;;;;;;;;;5033146;28;20643;-73
2022/04/14 02:06:28;;;;;;;3.87;2.03;;;;;;;;;;5029371;28;20604;-73
2022/04/14 02:08:54;;;;;;;2.17;1.97;;;;;;;;;;5033689;28;21042;-73
2022/04/14 02:11:20;;;;;;;2.50;2.30;;;;;;;;;;5032520;28;20430;-73
2022/04/14 02:13:46;;;;;;;8.47;2.70;;;;;;;;;;5027091;28;20519;-73
2022/04/14 02:16:12;;;;;;;3.47;1.90;;;;;;;;;;5033641;28;20438;-73
2022/04/14 02:18:38;;;;;;;1.90;1.80;;;;;;;;;;5028806;28;20513;-73
2022/04/14 02:21:04;;;;;;;2.53;2.30;;;;;;;;;;5027828;28;20435;-73
2022/04/14 02:23:30;;;;;;;2.10;2.00;;;;;;;;;;5029867;28;20430;-73
2022/04/14 02:25:56;;;;;;;1.70;1.70;;;;;;;;;;5033463;28;20435;-73
2022/04/14 02:28:22;;;;;;;1.90;1.80;;;;;;;;;;5032042;28;20928;-73
2022/04/14 02:30:48;;;;;;;6.40;2.13;;;;;;;;;;5029685;28;20467;-73
2022/04/14 02:33:14;;;;;;;5.00;2.00;;;;;;;;;;5030552;28;20498;-73
2022/04/14 02:35:40;;;;;;;4.07;1.70;;;;;;;;;;5030526;28;20530;-74
2022/04/14 02:38:06;;;;;;;6.57;1.60;;;;;;;;;;5027700;28;20489;-73
2022/04/14 02:40:32;;;;;;;1.57;1.47;;;;;;;;;;5028184;28;20431;-73
2022/04/14 02:42:58;;;;;;;2.00;1.90;;;;;;;;;;5030105;28;20491;-73
2022/04/14 02:45:25;;;;;;;7.17;2.60;;;;;;;;;;5031376;28;20458;-73
2022/04/14 02:47:51;;;;;;;4.67;2.13;;;;;;;;;;5032782;28;20489;-71
2022/04/14 02:50:18;;;;;;;4.80;1.70;;;;;;;;;;5031775;28;21032;-71
2022/04/14 02:52:44;;;;;;;2.67;1.80;;;;;;;;;;5032997;28;20875;-73
2022/04/14 02:55:10;;;;;;;2.20;2.07;;;;;;;;;;5028800;28;20571;-74
2022/04/14 02:57:36;;;;;;;4.23;1.73;;;;;;;;;;5029362;28;20505;-73
2022/04/14 03:00:05;;;;;;;5.33;2.23;;;;;;;;;;5033083;28;20458;-73
2022/04/14 03:02:31;;;;;;;1.63;1.53;;;;;;;;;;5030792;28;20919;-73
2022/04/14 03:04:58;;;;;;;4.57;1.57;;;;;;;;;;5029844;28;20439;-73
2022/04/14 03:07:24;;;;;;;1.80;1.70;;;;;;;;;;5028748;28;20428;-73
2022/04/14 03:09:50;;;;;;;4.13;2.50;;;;;;;;;;5033074;28;20489;-73
2022/04/14 03:12:16;;;;;;;3.33;2.20;;;;;;;;;;5032843;28;20423;-73
2022/04/14 03:14:43;;;;;;;4.53;2.40;;;;;;;;;;5027361;28;20479;-73
2022/04/14 03:17:09;;;;;;;5.33;1.80;;;;;;;;;;5027728;28;20439;-73
2022/04/14 03:19:36;;;;;;;2.07;1.97;;;;;;;;;;5027235;28;20842;-73
2022/04/14 03:22:02;;;;;;;2.30;2.10;;;;;;;;;;5028103;28;20907;-73
2022/04/14 03:24:28;;;;;;;4.00;1.83;;;;;;;;;;5030152;28;20813;-73
2022/04/14 03:26:54;;;;;;;5.03;2.57;;;;;;;;;;5032170;28;20435;-73
2022/04/14 03:29:21;;;;;;;1.80;1.70;;;;;;;;;;5032881;28;20716;-73
2022/04/14 03:31:47;;;;;;;8.20;2.50;;;;;;;;;;5026843;28;20443;-73
2022/04/14 03:34:13;;;;;;;3.13;2.50;;;;;;;;;;5029107;28;20940;-73
2022/04/14 03:36:39;;;;;;;3.33;3.03;;;;;;;;;;5032449;28;20787;-73
2022/04/14 03:39:05;;;;;;;8.83;3.03;;;;;;;;;;5028146;28;20522;-74
2022/04/14 03:41:31;;;;;;;9.30;3.00;;;;;;;;;;5032101;28;20481;-73
2022/04/14 03:43:57;;;;;;;4.27;3.80;;;;;;;;;;5023849;28;20793;-73
2022/04/14 03:46:23;;;;;;;5.53;3.30;;;;;;;;;;5028413;28;20493;-73
2022/04/14 03:48:49;;;;;;;4.07;3.10;;;;;;;;;;5031394;28;20487;-73
2022/04/14 03:51:16;;;;;;;5.30;2.97;;;;;;;;;;5032554;28;20900;-73
2022/04/14 03:53:42;;;;;;;6.50;2.80;;;;;;;;;;5031933;28;20860;-73
2022/04/14 03:56:08;;;;;;;6.80;3.60;;;;;;;;;;5031006;28;20443;-73
2022/04/14 03:58:34;;;;;;;3.17;3.07;;;;;;;;;;5032121;28;20462;-73
2022/04/14 04:01:00;;;;;;;13.20;2.83;;;;;;;;;;5031920;28;20471;-73
2022/04/14 04:03:26;;;;;;;3.30;3.00;;;;;;;;;;5029231;28;20462;-73
2022/04/14 04:05:52;;;;;;;5.40;2.57;;;;;;;;;;5029569;28;20910;-73
2022/04/14 04:08:18;;;;;;;9.27;3.40;;;;;;;;;;5028583;28;20482;-73
2022/04/14 04:10:44;;;;;;;2.80;2.60;;;;;;;;;;5030729;28;20526;-73
2022/04/14 04:13:10;;;;;;;2.97;2.97;;;;;;;;;;5031673;28;20880;-73
2022/04/14 04:15:36;;;;;;;5.40;4.10;;;;;;;;;;5026979;28;20733;-74
2022/04/14 04:18:04;;;;;;;3.07;2.80;;;;;;;;;;5029827;28;20522;-73
2022/04/14 04:20:30;;;;;;;6.93;2.80;;;;;;;;;;5029805;28;20934;-73
2022/04/14 04:22:56;;;;;;;3.03;2.83;;;;;;;;;;5019191;28;20518;-73
2022/04/14 04:25:22;;;;;;;6.93;3.30;;;;;;;;;;5029433;28;20455;-73
2022/04/14 04:27:48;;;;;;;6.17;3.30;;;;;;;;;;5043765;28;20828;-73
2022/04/14 04:30:14;;;;;;;3.23;2.87;;;;;;;;;;5033610;28;20426;-73
2022/04/14 04:32:41;;;;;;;3.87;3.50;;;;;;;;;;5035713;28;20423;-73
2022/04/14 04:35:07;;;;;;;5.30;3.10;;;;;;;;;;5034179;28;20473;-73
2022/04/14 04:37:33;;;;;;;5.33;2.70;;;;;;;;;;5032232;28;20439;-74
2022/04/14 04:39:59;;;;;;;6.80;4.33;;;;;;;;;;5031143;28;20458;-73
2022/04/14 04:42:25;;;;;;;4.37;4.07;;;;;;;;;;5035740;28;20794;-73
2022/04/14 04:44:52;;;;;;;12.73;4.77;;;;;;;;;;5032919;28;20431;-73
2022/04/14 04:47:20;;;;;;;5.63;4.40;;;;;;;;;;5033613;28;20808;-73
2022/04/14 04:49:46;;;;;;;5.97;4.40;;;;;;;;;;5031969;28;20512;-73
2022/04/14 04:52:12;;;;;;;4.60;4.13;;;;;;;;;;5032303;28;20994;-74
2022/04/14 04:54:38;;;;;;;7.90;4.83;;;;;;;;;;5035169;28;20554;-73
2022/04/14 04:57:04;;;;;;;6.80;4.27;;;;;;;;;;5035381;28;20431;-73
2022/04/14 04:59:31;;;;;;;3.67;3.47;;;;;;;;;;5035410;28;20907;-73
2022/04/14 05:01:56;;;;;;;4.30;3.90;;;;;;;;;;5033836;28;20443;-73
2022/04/14 05:04:22;;;;;;;4.00;3.60;;;;;;;;;;5030682;28;20948;-73
2022/04/14 05:06:48;;;;;;;3.30;2.57;;;;;;;;;;5033742;28;20950;-73
2022/04/14 05:09:16;;;;;;;3.00;2.80;;;;;;;;;;5034947;28;20478;-73
2022/04/14 05:11:42;;;;;;;4.30;3.10;;;;;;;;;;5035310;28;20434;-73
2022/04/14 05:14:08;;;;;;;23.47;3.80;;;;;;;;;;5034028;28;20423;-73
2022/04/14 05:16:34;;;;;;;3.60;2.37;;;;;;;;;;5030291;28;20439;-73
2022/04/14 05:19:00;;;;;;;2.23;2.03;;;;;;;;;;5034454;28;20787;-73
2022/04/14 05:21:26;;;;;;;4.50;2.37;;;;;;;;;;5035185;28;20446;-73
2022/04/14 05:23:52;;;;;;;1.90;1.80;;;;;;;;;;5034012;28;20811;-73
2022/04/14 05:26:18;;;;;;;7.80;2.60;;;;;;;;;;5034403;28;20438;-73
2022/04/14 05:28:44;;;;;;;2.73;2.40;;;;;;;;;;5027471;28;20495;-73
2022/04/14 05:31:10;;;;;;;7.07;2.47;;;;;;;;;;5015348;28;20924;-73
2022/04/14 05:33:36;;;;;;;10.50;3.03;;;;;;;;;;5029164;28;20526;-73
2022/04/14 05:36:02;;;;;;;6.07;4.10;;;;;;;;;;5030413;28;20871;-73
2022/04/14 05:38:28;;;;;;;21.27;12.20;;;;;;;;;;5030894;28;20474;-73
2022/04/14 05:40:55;;;;;;;19.87;8.37;;;;;;;;;;5028377;28;20920;-73
2022/04/14 05:43:24;;;;;;;6.73;4.07;;;;;;;;;;5033359;28;20431;-73
2022/04/14 05:45:50;;;;;;;6.97;5.20;;;;;;;;;;5031762;28;20844;-76
2022/04/14 05:48:17;;;;;;;10.57;4.67;;;;;;;;;;5033151;28;20494;-77
2022/04/14 05:50:44;;;;;;;6.33;5.73;;;;;;;;;;5032002;28;20439;-77
2022/04/14 05:53:10;;;;;;;34.70;10.80;;;;;;;;;;5042077;28;20941;-78
2022/04/14 05:55:36;;;;;;;8.67;7.40;;;;;;;;;;5021073;28;20435;-77
2022/04/14 05:58:05;;;;;;;5.77;4.10;;;;;;;;;;5033487;28;20526;-74
2022/04/14 06:00:32;;;;;;;3.13;2.93;;;;;;;;;;5031676;28;20427;-76
2022/04/14 06:02:59;;;;;;;3.87;2.83;;;;;;;;;;5030836;28;20867;-73
2022/04/14 06:05:26;;;;;;;4.93;4.53;;;;;;;;;;5033740;28;20415;-76
2022/04/14 06:07:52;;;;;;;4.63;3.37;;;;;;;;;;5034332;28;20459;-77
2022/04/14 06:10:18;;;;;;;3.00;2.90;;;;;;;;;;5032667;28;20436;-75
2022/04/14 06:12:44;;;;;;;3.33;3.03;;;;;;;;;;5030408;28;20427;-77
2022/04/14 06:15:10;;;;;;;5.03;3.63;;;;;;;;;;5048790;28;20773;-76
2022/04/14 06:17:36;;;;;;;5.83;3.97;;;;;;;;;;5033171;28;20420;-76
2022/04/14 06:20:03;;;;;;;6.05;3.50;;;;;;;;;;5026391;28;20527;-76
2022/04/14 06:22:29;;;;;;;4.30;3.10;;;;;;;;;;5031067;28;20192;-69
2022/04/14 06:24:58;;;;;;;7.80;3.40;;;;;;;;;;5027698;28;20683;-77
2022/04/14 06:27:24;;;;;;;4.73;3.57;;;;;;;;;;5032728;28;20442;-77
2022/04/14 06:29:50;;;;;;;11.73;2.43;;;;;;;;;;5040553;28;20462;-77
2022/04/14 06:32:16;;;;;;;6.53;3.33;;;;;;;;;;5044063;28;20438;-77
2022/04/14 06:34:42;;;;;;;8.40;2.90;;;;;;;;;;5048921;28;20430;-74
2022/04/14 06:37:08;;;;;;;13.93;2.93;;;;;;;;;;5047696;28;20948;-74
2022/04/14 06:39:34;;;;;;;4.50;2.87;;;;;;;;;;5044282;28;20458;-77
2022/04/14 06:42:00;;;;;;;4.50;2.90;;;;;;;;;;5050486;28;20545;-78
2022/04/14 06:44:25;;;;;;;7.63;3.07;;;;;;;;;;5045140;28;20914;-78
2022/04/14 06:46:51;;;;;;;10.50;3.97;;;;;;;;;;5044995;28;20438;-74
2022/04/14 06:49:17;;;;;;;11.50;3.93;;;;;;;;;;5044132;28;20505;-75
2022/04/14 06:51:43;;;;;;;9.83;2.63;;;;;;;;;;5048385;28;20429;-74
2022/04/14 06:54:09;;;;;;;4.13;3.33;;;;;;;;;;5046038;28;20453;-74
2022/04/14 06:56:35;;;;;;;4.40;3.20;;;;;;;;;;5044277;28;20465;-76
2022/04/14 06:59:01;;;;;;;5.10;3.00;;;;;;;;;;5048764;28;20511;-77
2022/04/14 07:01:27;;;;;;;4.37;2.90;;;;;;;;;;5043887;28;20434;-73
2022/04/14 07:03:53;;;;;;;2.77;2.67;;;;;;;;;;5049302;28;20525;-76
2022/04/14 07:06:19;;;;;;;4.67;2.83;;;;;;;;;;5041660;28;20553;-75
2022/04/14 07:08:45;;;;;;;2.43;2.30;;;;;;;;;;5044163;28;20573;-74
2022/04/14 07:11:12;;;;;;;7.30;2.23;;;;;;;;;;5040642;28;20513;-74
2022/04/14 07:13:38;;;;;;;6.63;2.47;;;;;;;;;;5044918;28;20446;-74
2022/04/14 07:16:04;;;;;;;9.80;3.03;;;;;;;;;;5046860;28;20528;-78
2022/04/14 07:18:30;;;;;;;10.23;2.60;;;;;;;;;;5042907;28;20438;-77
2022/04/14 07:20:56;;;;;;;9.00;2.50;;;;;;;;;;5045610;28;20584;-79
2022/04/14 07:23:23;;;;;;;3.70;3.20;;;;;;;;;;5049445;28;20965;-78
2022/04/14 07:25:49;;;;;;;2.87;2.30;;;;;;;;;;5049739;28;20488;-78
2022/04/14 07:28:15;;;;;;;2.40;2.23;;;;;;;;;;5045986;28;20962;-78
2022/04/14 07:30:42;;;;;;;3.77;2.67;;;;;;;;;;5040039;28;20490;-74
2022/04/14 07:33:08;;;;;;;7.80;2.70;;;;;;;;;;5044951;28;20449;-74
2022/04/14 07:35:34;;;;;;;4.30;2.30;;;;;;;;;;5048412;28;20839;-77
2022/04/14 07:38:00;;;;;;;2.67;2.07;;;;;;;;;;5045624;28;20471;-76
2022/04/14 07:40:26;;;;;;;5.20;2.30;;;;;;;;;;5049076;28;20437;-75
2022/04/14 07:42:55;;;;;;;3.53;3.33;;;;;;;;;;5044003;28;20431;-76
2022/04/14 07:45:21;;;;;;;9.43;2.30;;;;;;;;;;5048023;28;20434;-73
2022/04/14 07:47:47;;;;;;;4.20;2.90;;;;;;;;;;5043096;28;20482;-76
2022/04/14 07:50:15;;;;;;;3.67;2.57;;;;;;;;;;5049324;28;20513;-73
2022/04/14 07:52:51;;;;;;;2.23;2.13;;;;;;;;;;5047900;28;20991;-77
2022/04/14 07:55:27;;;;;;;4.47;2.27;;;;;;;;;;5049240;28;20450;-76
2022/04/14 07:57:54;;;;;;;3.57;2.40;;;;;;;;;;5045104;28;20446;-75
2022/04/14 08:00:20;;;;;;;10.00;2.70;;;;;;;;;;5045846;28;20449;-77
2022/04/14 08:02:54;;;;;;;2.17;1.93;;;;;;;;;;5046974;28;20428;-77
2022/04/14 08:05:22;;;;;;;5.50;2.53;;;;;;;;;;5051650;28;20529;-76
2022/04/14 08:07:47;;;;;;;2.87;2.67;;;;;;;;;;5052801;28;20504;-74
2022/04/14 08:10:14;;;;;;;3.37;2.10;;;;;;;;;;5050701;28;20926;-73
2022/04/14 08:12:40;;;;;;;5.50;2.30;;;;;;;;;;5047686;28;20440;-77
2022/04/14 08:15:07;;;;;;;3.93;3.20;;;;;;;;;;5052861;28;20476;-75
2022/04/14 08:17:33;;;;;;;4.40;2.63;;;;;;;;;;5048109;28;20851;-74
2022/04/14 08:20:00;;;;;;;14.10;5.50;;;;;;;;;;5048744;28;20448;-73
2022/04/14 08:22:26;;;;;;;4.43;3.63;;;;;;;;;;5048949;28;20454;-75
2022/04/14 08:24:52;;;;;;;9.67;4.53;;;;;;;;;;5050093;28;20450;-75
2022/04/14 08:27:18;;;;;;;12.20;4.83;;;;;;;;;;5048324;28;20465;-76
2022/04/14 08:29:44;;;;;;;8.27;4.40;;;;;;;;;;5040915;28;20479;-74
2022/04/14 08:32:10;;;;;;;6.20;4.80;;;;;;;;;;5048274;28;20460;-73
2022/04/14 08:34:36;;;;;;;6.80;5.23;;;;;;;;;;5049558;28;20454;-75
2022/04/14 08:37:02;;;;;;;9.93;6.00;;;;;;;;;;5047842;28;20935;-73
2022/04/14 08:39:30;;;;;;;8.23;6.90;;;;;;;;;;5052825;28;20459;-76
2022/04/14 08:41:59;;;;;;;9.67;6.27;;;;;;;;;;5048025;28;20539;-73
2022/04/14 08:44:29;;;;;;;21.27;7.03;;;;;;;;;;5049828;28;20442;-77
2022/04/14 08:46:55;;;;;;;8.73;5.30;;;;;;;;;;5050488;28;20563;-77
2022/04/14 08:49:22;;;;;;;8.10;6.83;;;;;;;;;;5051039;28;20501;-77
2022/04/14 08:51:49;;;;;;;14.67;7.60;;;;;;;;;;5050772;28;20438;-74
2022/04/14 08:54:16;;;;;;;7.70;7.00;;;;;;;;;;5042478;28;20772;-77
2022/04/14 08:56:42;;;;;;;10.70;7.83;;;;;;;;;;5052446;28;20759;-75
2022/04/14 08:59:08;;;;;;;13.23;9.77;;;;;;;;;;5048541;28;20974;-74
2022/04/14 09:01:35;;;;;;;12.80;9.10;;;;;;;;;;5044816;28;20831;-74
2022/04/14 09:04:01;;;;;;;9.20;6.37;;;;;;;;;;5049388;28;20450;-75
2022/04/14 09:06:28;;;;;;;15.77;8.03;;;;;;;;;;5051028;28;20872;-77
2022/04/14 09:08:56;;;;;;;23.80;9.50;;;;;;;;;;5048504;28;21053;-75
2022/04/14 09:11:22;;;;;;;19.20;11.00;;;;;;;;;;5046943;28;20584;-76
2022/04/14 09:13:48;;;;;;;14.13;10.47;;;;;;;;;;5046408;28;20485;-76
2022/04/14 09:16:14;;;;;;;27.80;11.33;;;;;;;;;;5048247;28;20438;-76
2022/04/14 09:18:40;;;;;;;15.77;11.20;;;;;;;;;;5045862;28;20447;-76
2022/04/14 09:21:07;;;;;;;11.50;8.50;;;;;;;;;;5050168;28;20823;-74
2022/04/14 09:23:36;;;;;;;15.93;9.07;;;;;;;;;;5049562;28;20430;-75
2022/04/14 09:26:14;;;;;;;13.63;7.23;;;;;;;;;;5047360;28;20474;-74
2022/04/14 09:29:00;;;;;;;19.43;11.60;;;;;;;;;;5039749;28;20858;-73
2022/04/14 09:31:27;;;;;;;14.33;9.80;;;;;;;;;;5048214;28;20442;-75
2022/04/14 09:33:53;;;;;;;19.30;10.10;;;;;;;;;;5043642;28;20453;-75
2022/04/14 09:36:20;;;;;;;16.83;9.77;;;;;;;;;;5050810;28;20422;-77
2022/04/14 09:38:55;;;;;;;12.90;8.20;;;;;;;;;;5049929;28;20497;-74
2022/04/14 09:41:31;;;;;;;15.97;9.60;;;;;;;;;;5050242;28;20426;-76
2022/04/14 09:43:58;;;;;;;13.37;9.40;;;;;;;;;;5049338;28;20446;-76
2022/04/14 09:46:24;;;;;;;15.57;9.97;;;;;;;;;;5051191;28;20429;-74
2022/04/14 09:49:05;;;;;;;20.10;11.03;;;;;;;;;;5048161;28;20497;-76
2022/04/14 09:51:33;;;;;;;18.60;10.07;;;;;;;;;;5051486;28;20922;-74
2022/04/14 09:54:03;;;;;;;15.70;10.50;;;;;;;;;;5051061;28;20778;-75
2022/04/14 09:56:40;;;;;;;16.73;9.40;;;;;;;;;;5050802;28;20546;-74
2022/04/14 09:59:07;;;;;;;14.47;10.60;;;;;;;;;;5048958;28;20580;-75
2022/04/14 10:01:34;;;;;;;15.27;9.07;;;;;;;;;;5050696;28;20425;-74
2022/04/14 10:04:00;;;;;;;11.70;9.17;;;;;;;;;;5049926;28;20440;-74
2022/04/14 10:06:26;;;;;;;17.70;11.03;;;;;;;;;;5047650;28;20525;-75
2022/04/14 10:08:52;;;;;;;12.17;10.63;;;;;;;;;;5047873;28;20926;-75
2022/04/14 10:11:25;;;;;;;17.37;10.60;;;;;;;;;;5051161;28;20418;-74
2022/04/14 10:13:51;;;;;;;21.60;11.30;;;;;;;;;;5047049;28;20447;-75
2022/04/14 10:16:23;;;;;;;18.17;10.43;;;;;;;;;;5043796;28;20488;-76
2022/04/14 10:18:52;;;;;;;17.93;11.00;;;;;;;;;;5046613;28;20429;-75
2022/04/14 10:21:18;;;;;;;15.60;10.60;;;;;;;;;;5046344;28;20435;-76
2022/04/14 10:23:46;;;;;;;14.30;10.57;;;;;;;;;;5043590;28;20491;-76
2022/04/14 10:26:13;;;;;;;17.20;11.40;;;;;;;;;;5050224;28;20457;-77
2022/04/14 10:28:40;;;;;;;14.20;9.70;;;;;;;;;;5047512;28;20978;-74
2022/04/14 10:31:06;;;;;;;24.13;11.77;;;;;;;;;;5047346;28;20437;-75
2022/04/14 10:33:33;;;;;;;14.73;9.83;;;;;;;;;;5050678;28;20999;-77
2022/04/14 10:35:58;;;;;;;15.30;11.20;;;;;;;;;;5046730;28;20836;-76
2022/04/14 10:38:32;;;;;;;13.97;10.80;;;;;;;;;;5049929;28;21120;-74
2022/04/14 10:41:00;;;;;;;19.13;11.23;;;;;;;;;;5048714;28;20430;-76
2022/04/14 10:43:26;;;;;;;24.37;11.67;;;;;;;;;;5045859;28;20451;-73
2022/04/14 10:45:53;;;;;;;18.60;9.40;;;;;;;;;;5048304;28;20483;-74
2022/04/14 10:48:27;;;;;;;16.43;11.17;;;;;;;;;;5042180;28;20486;-75
2022/04/14 10:51:12;;;;;;;14.30;12.80;;;;;;;;;;5048602;28;20465;-74
2022/04/14 10:53:48;;;;;;;19.83;11.73;;;;;;;;;;5046277;28;20438;-76
2022/04/14 10:56:34;;;;;;;33.77;13.17;;;;;;;;;;5047219;28;20429;-76
2022/04/14 10:59:00;;;;;;;12.80;10.50;;;;;;;;;;5046673;28;20435;-74
2022/04/14 11:01:45;;;;;;;19.47;11.60;;;;;;;;;;5044561;28;20444;-78
2022/04/14 11:04:30;;;;;;;16.40;12.23;;;;;;;;;;5049454;28;20469;-74
2022/04/14 11:07:01;;;;;;;12.03;10.93;;;;;;;;;;5047220;28;20474;-72
2022/04/14 11:09:42;;;;;;;19.30;12.77;;;;;;;;;;5047263;28;20482;-73
2022/04/14 11:12:09;;;;;;;27.93;12.73;;;;;;;;;;5046356;28;20530;-74
2022/04/14 11:14:35;;;;;;;16.03;12.43;;;;;;;;;;5046772;28;20443;-74
2022/04/14 11:17:03;;;;;;;17.80;11.60;;;;;;;;;;5049112;28;20415;-73
2022/04/14 11:19:29;;;;;;;17.20;10.77;;;;;;;;;;5044478;28;20860;-76
2022/04/14 11:22:05;;;;;;;12.23;10.50;;;;;;;;;;5044207;28;21138;-73
2022/04/14 11:24:41;;;;;;;17.10;11.80;;;;;;;;;;5047628;28;20476;-74
2022/04/14 11:27:15;;;;;;;14.10;11.77;;;;;;;;;;5047481;28;20418;-73
2022/04/14 11:29:48;;;;;;;17.30;11.23;;;;;;;;;;5043267;28;20490;-74
2022/04/14 11:32:15;;;;;;;17.40;11.53;;;;;;;;;;5048391;28;20419;-73
2022/04/14 11:34:41;;;;;;;16.97;12.20;;;;;;;;;;5042152;28;20861;-76
2022/04/14 11:37:26;;;;;;;11.80;10.67;;;;;;;;;;5039424;28;20431;-74
2022/04/14 11:40:10;;;;;;;18.00;11.07;;;;;;;;;;5048084;28;20778;-74
2022/04/14 11:42:36;;;;;;;12.67;10.43;;;;;;;;;;5049313;28;20492;-76
2022/04/14 11:45:02;;;;;;;11.53;10.33;;;;;;;;;;5044116;28;20959;-74
2022/04/14 11:47:28;;;;;;;25.67;10.97;;;;;;;;;;5041373;28;20466;-74
2022/04/14 11:49:55;;;;;;;15.57;9.60;;;;;;;;;;5045886;28;20584;-75
2022/04/14 11:52:22;;;;;;;17.90;12.90;;;;;;;;;;5048886;28;21030;-74
2022/04/14 11:54:49;;;;;;;16.73;12.50;;;;;;;;;;5045787;28;20438;-74
2022/04/14 11:57:19;;;;;;;12.70;11.40;;;;;;;;;;5045845;28;20950;-75
2022/04/14 11:59:46;;;;;;;16.57;10.40;;;;;;;;;;5043532;28;20888;-73
2022/04/14 12:02:13;;;;;;;13.33;10.47;;;;;;;;;;5045867;28;20522;-74
2022/04/14 12:04:47;;;;;;;12.73;8.90;;;;;;;;;;5042871;28;20451;-76
2022/04/14 12:07:13;;;;;;;20.53;12.33;;;;;;;;;;5049074;28;20433;-74
2022/04/14 12:09:40;;;;;;;19.53;10.73;;;;;;;;;;5045228;28;20487;-72
2022/04/14 12:12:14;;;;;;;14.43;12.70;;;;;;;;;;5042255;28;20456;-74
2022/04/14 12:14:40;;;;;;;16.93;11.40;;;;;;;;;;5043509;28;20777;-74
2022/04/14 12:17:07;;;;;;;16.53;9.60;;;;;;;;;;5045792;28;20453;-76
2022/04/14 12:19:43;;;;;;;12.03;10.77;;;;;;;;;;5041972;28;20451;-73
2022/04/14 12:22:10;;;;;;;18.77;11.70;;;;;;;;;;5041564;28;20422;-74
2022/04/14 12:24:36;;;;;;;21.43;12.17;;;;;;;;;;5045357;28;20518;-73
2022/04/14 12:27:02;;;;;;;20.03;11.53;;;;;;;;;;5039909;28;20529;-73
2022/04/14 12:29:28;;;;;;;16.20;11.47;;;;;;;;;;5045906;28;20490;-74
2022/04/14 12:31:58;;;;;;;13.77;11.30;;;;;;;;;;5044799;28;20515;-73
2022/04/14 12:34:24;;;;;;;15.90;9.97;;;;;;;;;;5044925;28;20435;-74
2022/04/14 12:36:50;;;;;;;21.63;8.67;;;;;;;;;;5047159;28;20428;-75
2022/04/14 12:39:18;;;;;;;24.13;13.50;;;;;;;;;;5044919;28;20443;-74
2022/04/14 12:41:44;;;;;;;14.20;11.30;;;;;;;;;;5044607;28;20492;-74
2022/04/14 12:44:15;;;;;;;15.23;10.40;;;;;;;;;;5040285;28;20516;-71
2022/04/14 12:46:41;;;;;;;12.77;11.40;;;;;;;;;;5040761;28;20500;-74
2022/04/14 12:49:11;;;;;;;14.20;10.43;;;;;;;;;;5042804;28;20490;-73
2022/04/14 12:51:39;;;;;;;14.13;10.80;;;;;;;;;;5039465;28;20447;-74
2022/04/14 12:54:06;;;;;;;14.30;10.43;;;;;;;;;;5045734;28;20818;-72
2022/04/14 12:56:33;;;;;;;13.07;10.13;;;;;;;;;;5041979;28;20928;-73
2022/04/14 12:59:06;;;;;;;14.53;9.10;;;;;;;;;;5044005;28;20446;-73
2022/04/14 13:01:44;;;;;;;16.90;10.37;;;;;;;;;;5049733;28;20587;-73
2022/04/14 13:04:10;;;;;;;24.13;14.63;;;;;;;;;;5048375;28;20432;-74
2022/04/14 13:06:37;;;;;;;13.93;8.67;;;;;;;;;;5047490;28;20465;-74
2022/04/14 13:09:18;;;;;;;16.83;10.47;;;;;;;;;;5048146;28;20480;-75
2022/04/14 13:11:46;;;;;;;24.63;13.00;;;;;;;;;;5043317;28;20955;-73
2022/04/14 13:14:32;;;;;;;20.03;12.97;;;;;;;;;;5041337;28;21012;-73
2022/04/14 13:16:59;;;;;;;16.07;11.73;;;;;;;;;;5042570;28;21016;-73
2022/04/14 13:19:25;;;;;;;14.67;11.87;;;;;;;;;;5043981;28;20439;-72
2022/04/14 13:21:51;;;;;;;16.60;11.40;;;;;;;;;;5046588;28;20446;-73
2022/04/14 13:24:18;;;;;;;19.13;9.63;;;;;;;;;;5048959;28;20478;-74
2022/04/14 13:26:44;;;;;;;14.70;10.23;;;;;;;;;;5049809;28;20442;-76
2022/04/14 13:29:11;;;;;;;17.47;11.13;;;;;;;;;;5040422;28;20591;-77
2022/04/14 13:31:41;;;;;;;16.10;9.90;;;;;;;;;;5045360;28;20449;-76
2022/04/14 13:34:07;;;;;;;16.20;12.17;;;;;;;;;;5048073;28;20446;-74
2022/04/14 13:36:34;;;;;;;14.47;12.07;;;;;;;;;;5040109;28;20438;-74
2022/04/14 13:39:00;;;;;;;16.00;12.53;;;;;;;;;;5030917;28;20504;-75
2022/04/14 13:41:26;;;;;;;14.23;11.30;;;;;;;;;;5042293;28;20431;-75
2022/04/14 13:43:52;;;;;;;11.30;10.20;;;;;;;;;;5039355;28;20454;-73
2022/04/14 13:46:18;;;;;;;11.90;9.50;;;;;;;;;;5042782;28;20993;-73
2022/04/14 13:48:44;;;;;;;10.53;8.33;;;;;;;;;;5044738;28;20584;-75
2022/04/14 13:51:10;;;;;;;12.83;9.60;;;;;;;;;;5046654;28;20838;-75
2022/04/14 13:53:39;;;;;;;16.97;10.53;;;;;;;;;;5046489;28;20961;-77
2022/04/14 13:56:06;;;;;;;18.23;11.83;;;;;;;;;;5051387;28;20418;-74
2022/04/14 13:58:32;;;;;;;14.50;10.13;;;;;;;;;;5046507;28;21048;-78
2022/04/14 14:00:58;;;;;;;17.50;11.67;;;;;;;;;;5043677;28;20439;-76
2022/04/14 14:03:24;;;;;;;14.83;10.10;;;;;;;;;;5045018;28;20488;-78
2022/04/14 14:05:50;;;;;;;18.53;10.53;;;;;;;;;;5048541;28;20693;-78
2022/04/14 14:08:16;;;;;;;21.10;9.87;;;;;;;;;;5045215;28;21406;-78
2022/04/14 14:10:42;;;;;;;12.60;11.10;;;;;;;;;;5051012;28;20426;-76
2022/04/14 14:13:08;;;;;;;11.67;8.70;;;;;;;;;;5033992;28;20504;-76
2022/04/14 14:15:34;;;;;;;15.63;10.80;;;;;;;;;;5045755;28;20452;-74
2022/04/14 14:18:02;;;;;;;16.73;9.70;;;;;;;;;;5043028;28;21192;-76
2022/04/14 14:20:28;;;;;;;8.13;7.43;;;;;;;;;;5044330;28;20442;-74
2022/04/14 14:22:54;;;;;;;16.30;10.07;;;;;;;;;;5041321;28;20439;-70
2022/04/14 14:25:20;;;;;;;14.43;7.47;;;;;;;;;;5045109;28;20516;-73
2022/04/14 14:27:46;;;;;;;8.43;7.63;;;;;;;;;;5047124;28;21000;-74
2022/04/14 14:30:12;;;;;;;10.33;8.43;;;;;;;;;;5044963;28;20442;-74
2022/04/14 14:32:38;;;;;;;12.20;9.47;;;;;;;;;;5042710;28;20541;-74
2022/04/14 14:35:04;;;;;;;13.73;8.73;;;;;;;;;;5045633;28;20990;-75